Tropical Cyclones
[Index]
Main Index Home Page Stock Weather Photos Extreme Storms Discussion Storm News and Storm Chasing Reports Tropical Cyclones / Hurricanes / Typhoons Weather Data and Links Wild Fires / Bushfires Weather Observation Techniques Weather Picture Catalogue Tornado Pictures and Reports Stock Video Footage and DVDs for sale
Season 2002-2003 Tropical Cyclone DOVI Track Map
Season 2002-2003 Summaries: [BoM-AU] [JTWC-AU] [JTWC-SIO] [JTWC-SPAC] [JTWC-SH]
<<- Previous TC | JTWC 2002-2003 Season | Next TC ->>

click for intensity scale information  Lat/long Grid: Show Hide

 Date Labels: Show Hide

Joint Typhoon Warning Centre Cyclone Data

Name: DOVI

04 Feb 2003 18:00 UTC to 11 Feb 2003 00:00 UTC

    date/time    lat    long     hPa   cat  kts
2003-02-04 18   10.2   162.9W   1009         20          
2003-02-05 00   10.7   162.9W   1004         20          
2003-02-05 06   11.3   163.0W   1003         25          
2003-02-05 12   12.0   163.0W   1002         30          
2003-02-05 18   12.8   162.9W   1000         30          
2003-02-06 00   13.6   162.8W   1002         35          
2003-02-06 06   14.4   162.6W   1002    1    40          
2003-02-06 12   15.2   162.7W    994    2    65          
2003-02-06 18   15.8   163.3W    976    2    65          
2003-02-07 00   16.3   163.8W    981    3    75          
2003-02-07 06   16.7   164.4W    976    3    80          
2003-02-07 12   17.1   165.0W    970    3    90          
2003-02-07 18   17.5   165.5W    948    4   115          
2003-02-08 00   17.9   166.0W    936    5   125          
2003-02-08 06   18.3   166.6W    910    5   130          
2003-02-08 12   18.7   167.4W    910    5   130          
2003-02-08 18   19.4   168.0W    910    5   130          
2003-02-09 00   20.0   168.6W    910    5   130          
2003-02-09 06   20.8   168.9W    936    5   125          
2003-02-09 12   21.6   169.1W    927    4   115          
2003-02-09 18   22.4   169.2W    956    4   105          
2003-02-10 00   23.2   169.0W    966    3    95          
2003-02-10 06   24.0   168.8W    970    3    90          
2003-02-10 12   24.7   168.4W    984    2    70          
2003-02-10 18   25.4   168.7W    997    1    50          
2003-02-11 00   26.2   169.0W    997    1    50          
Winds are 1-min average.

Tropical cyclone tracks developed by Michael Bath using data from the Joint Typhoon Warning Centre Best Tracks and Google Maps.


[Australian Severe Weather index] [Copyright Notice] [Email Contacts] [Search This Site] [Privacy Policy]
Document: tropical_cyclone_dovi.htm Updated: 28 June 2017